sensor_id;sensor_type;location;lat;lon;timestamp;pressure;altitude;pressure_sealevel;temperature;humidity
65054;BME280;51639;47.828;35.038;2022-08-30T00:04:17;100186.34;;;24.01;74.26
65054;BME280;51639;47.828;35.038;2022-08-30T00:19:19;100197.69;;;24.03;74.58
65054;BME280;51639;47.828;35.038;2022-08-30T00:34:21;100199.97;;;23.93;77.07
65054;BME280;51639;47.828;35.038;2022-08-30T00:49:23;100202.78;;;23.82;73.59
65054;BME280;51639;47.828;35.038;2022-08-30T01:04:26;100194.97;;;23.80;67.58
65054;BME280;51639;47.828;35.038;2022-08-30T01:35:01;100199.28;;;23.76;58.21
65054;BME280;51639;47.828;35.038;2022-08-30T01:50:04;100207.06;;;23.83;56.89
65054;BME280;51639;47.828;35.038;2022-08-30T02:05:06;100203.09;;;23.62;56.50
65054;BME280;51639;47.828;35.038;2022-08-30T02:20:08;100199.75;;;22.96;56.84
65054;BME280;51639;47.828;35.038;2022-08-30T02:35:09;100201.75;;;22.79;57.58
65054;BME280;51639;47.828;35.038;2022-08-30T02:50:11;100213.19;;;22.44;59.76
65054;BME280;51639;47.828;35.038;2022-08-30T03:05:14;100226.19;;;21.84;61.35
65054;BME280;51639;47.828;35.038;2022-08-30T03:20:16;100247.38;;;21.98;63.32
65054;BME280;51639;47.828;35.038;2022-08-30T03:35:18;100252.59;;;22.28;63.96
65054;BME280;51639;47.828;35.038;2022-08-30T03:50:20;100252.69;;;22.50;64.52
65054;BME280;51639;47.828;35.038;2022-08-30T04:05:22;100250.06;;;22.78;63.63
65054;BME280;51639;47.828;35.038;2022-08-30T04:20:23;100257.94;;;23.24;65.00
65054;BME280;51639;47.828;35.038;2022-08-30T04:35:25;100263.53;;;23.69;63.82
65054;BME280;51639;47.828;35.038;2022-08-30T04:50:27;100255.63;;;24.18;62.28
65054;BME280;51639;47.828;35.038;2022-08-30T05:05:29;100266.09;;;24.58;61.31
65054;BME280;51639;47.828;35.038;2022-08-30T05:20:40;100279.53;;;25.36;59.80
65054;BME280;51639;47.828;35.038;2022-08-30T05:35:42;100286.53;;;26.08;58.12
65054;BME280;51639;47.828;35.038;2022-08-30T05:50:44;100298.03;;;27.23;55.83
65054;BME280;51639;47.828;35.038;2022-08-30T06:05:46;100295.75;;;28.31;52.34
65054;BME280;51639;47.828;35.038;2022-08-30T06:20:48;100301.41;;;29.12;49.04
65054;BME280;51639;47.828;35.038;2022-08-30T06:35:51;100310.88;;;30.05;46.45
65054;BME280;51639;47.828;35.038;2022-08-30T06:50:59;100303.13;;;30.99;38.06
65054;BME280;51639;47.828;35.038;2022-08-30T07:06:01;100307.97;;;31.88;37.41
65054;BME280;51639;47.828;35.038;2022-08-30T07:21:07;100307.66;;;32.54;37.90
65054;BME280;51639;47.828;35.038;2022-08-30T07:36:09;100309.63;;;33.16;37.48
65054;BME280;51639;47.828;35.038;2022-08-30T07:51:12;100297.75;;;34.00;34.31
65054;BME280;51639;47.828;35.038;2022-08-30T08:06:15;100293.63;;;34.70;33.70
65054;BME280;51639;47.828;35.038;2022-08-30T08:21:17;100284.28;;;35.68;30.38
65054;BME280;51639;47.828;35.038;2022-08-30T08:36:19;100283.53;;;36.33;27.39
65054;BME280;51639;47.828;35.038;2022-08-30T08:51:23;100272.13;;;36.91;25.34
65054;BME280;51639;47.828;35.038;2022-08-30T09:06:47;100260.13;;;37.21;26.68
65054;BME280;51639;47.828;35.038;2022-08-30T09:21:58;100251.72;;;37.33;25.81
65054;BME280;51639;47.828;35.038;2022-08-30T09:37:00;100246.19;;;38.08;25.03
65054;BME280;51639;47.828;35.038;2022-08-30T09:52:11;100239.78;;;38.74;24.25
65054;BME280;51639;47.828;35.038;2022-08-30T10:07:39;100228.56;;;38.87;24.73
65054;BME280;51639;47.828;35.038;2022-08-30T10:22:38;100225.22;;;38.79;25.85
65054;BME280;51639;47.828;35.038;2022-08-30T10:37:44;100219.06;;;38.27;22.71
65054;BME280;51639;47.828;35.038;2022-08-30T10:52:55;100205.88;;;38.87;22.16
65054;BME280;51639;47.828;35.038;2022-08-30T11:23:25;100182.06;;;40.13;21.17
65054;BME280;51639;47.828;35.038;2022-08-30T12:23:47;100136.41;;;35.44;25.60
65054;BME280;51639;47.828;35.038;2022-08-30T12:39:00;100131.25;;;34.94;25.46
65054;BME280;51639;47.828;35.038;2022-08-30T12:54:08;100112.22;;;34.58;25.79
65054;BME280;51639;47.828;35.038;2022-08-30T13:09:21;100096.19;;;34.24;26.22
65054;BME280;51639;47.828;35.038;2022-08-30T13:24:32;100086.84;;;34.21;25.13
65054;BME280;51639;47.828;35.038;2022-08-30T13:39:34;100055.38;;;34.15;26.79
65054;BME280;51639;47.828;35.038;2022-08-30T13:54:40;100040.03;;;33.82;26.92
65054;BME280;51639;47.828;35.038;2022-08-30T14:09:42;100023.66;;;33.71;26.66
65054;BME280;51639;47.828;35.038;2022-08-30T14:24:43;100016.16;;;33.39;27.00
65054;BME280;51639;47.828;35.038;2022-08-30T14:39:45;100009.47;;;33.34;27.62
65054;BME280;51639;47.828;35.038;2022-08-30T14:54:47;99992.06;;;32.94;28.74
65054;BME280;51639;47.828;35.038;2022-08-30T15:09:52;99987.44;;;32.88;29.14
65054;BME280;51639;47.828;35.038;2022-08-30T15:24:54;99979.75;;;32.64;29.73
65054;BME280;51639;47.828;35.038;2022-08-30T15:39:56;99971.84;;;32.28;30.51
65054;BME280;51639;47.828;35.038;2022-08-30T15:55:02;99978.03;;;31.94;29.90
65054;BME280;51639;47.828;35.038;2022-08-30T16:10:04;99994.59;;;31.75;29.96
65054;BME280;51639;47.828;35.038;2022-08-30T16:25:06;100001.56;;;31.66;30.68
65054;BME280;51639;47.828;35.038;2022-08-30T16:40:09;100007.97;;;31.51;30.71
65054;BME280;51639;47.828;35.038;2022-08-30T16:55:13;100013.84;;;31.23;32.01
65054;BME280;51639;47.828;35.038;2022-08-30T17:10:15;100044.53;;;30.83;32.94
65054;BME280;51639;47.828;35.038;2022-08-30T17:25:23;100056.84;;;30.57;33.37
65054;BME280;51639;47.828;35.038;2022-08-30T17:40:30;100051.22;;;30.42;34.53
65054;BME280;51639;47.828;35.038;2022-08-30T17:55:32;100046.88;;;30.26;35.07
65054;BME280;51639;47.828;35.038;2022-08-30T18:10:35;100061.50;;;29.88;35.75
65054;BME280;51639;47.828;35.038;2022-08-30T18:25:37;100071.03;;;29.00;40.56
65054;BME280;51639;47.828;35.038;2022-08-30T18:40:39;100071.56;;;28.36;44.16
65054;BME280;51639;47.828;35.038;2022-08-30T18:55:42;100064.69;;;27.90;45.85
65054;BME280;51639;47.828;35.038;2022-08-30T19:10:43;100074.06;;;27.66;46.75
65054;BME280;51639;47.828;35.038;2022-08-30T19:25:45;100068.63;;;27.60;46.34
65054;BME280;51639;47.828;35.038;2022-08-30T19:40:57;100060.09;;;27.52;45.93
65054;BME280;51639;47.828;35.038;2022-08-30T19:55:59;100063.53;;;27.45;45.44
65054;BME280;51639;47.828;35.038;2022-08-30T20:11:03;100061.94;;;27.24;46.21
65054;BME280;51639;47.828;35.038;2022-08-30T20:26:05;100067.16;;;27.01;46.75
65054;BME280;51639;47.828;35.038;2022-08-30T20:41:08;100065.53;;;26.60;47.97
65054;BME280;51639;47.828;35.038;2022-08-30T20:56:15;100059.03;;;26.39;48.51
65054;BME280;51639;47.828;35.038;2022-08-30T21:11:17;100042.13;;;26.37;48.58
65054;BME280;51639;47.828;35.038;2022-08-30T21:26:19;100043.66;;;26.51;48.15
65054;BME280;51639;47.828;35.038;2022-08-30T21:41:21;100043.84;;;26.40;49.85
65054;BME280;51639;47.828;35.038;2022-08-30T21:56:27;100054.81;;;26.13;52.43
65054;BME280;51639;47.828;35.038;2022-08-30T22:11:29;100100.78;;;25.77;51.70
65054;BME280;51639;47.828;35.038;2022-08-30T22:26:32;100086.31;;;25.11;54.45
65054;BME280;51639;47.828;35.038;2022-08-30T22:41:34;100064.56;;;25.15;55.73
65054;BME280;51639;47.828;35.038;2022-08-30T22:56:36;100070.56;;;24.95;56.64
65054;BME280;51639;47.828;35.038;2022-08-30T23:11:38;100058.84;;;24.77;58.47
65054;BME280;51639;47.828;35.038;2022-08-30T23:26:41;100058.19;;;24.96;60.61
65054;BME280;51639;47.828;35.038;2022-08-30T23:42:03;100046.97;;;25.07;61.39
65054;BME280;51639;47.828;35.038;2022-08-30T23:57:24;100044.19;;;25.07;62.28
